Home > Products > Valid Products > TAF

000
FTUS43 KDMX 180912 AAA
TAFALO
TAF AMD
KALO 180912Z 1809/1906 VRB02KT 5SM BR SKC
      TEMPO 1810/1812 2SM BR
     FM181200 VRB04KT P6SM SKC
     FM181500 12012KT P6SM SCT150=



000
FTUS43 KDMX 180911 AAB
TAFMCW
TAF AMD
KMCW 180911Z 1809/1906 00000KT 1SM BR SKC
      TEMPO 1809/1812 1/2SM FZFG
     FM181200 10005KT 3SM BR SKC
     FM181330 13010KT P6SM SCT150
     FM181500 13012G17KT P6SM BKN150
     FM190000 14014KT P6SM SKC=



000
FTUS43 KDMX 180733 AAA
TAFMCW
TAF AMD
KMCW 180733Z 1808/1906 00000KT 1/4SM FZFG SKC
     FM181200 10005KT 3SM BR SKC
     FM181330 13010KT P6SM SCT150
     FM181500 13012G17KT P6SM BKN150
     FM190000 14014KT P6SM SKC=



000
FTUS43 KDMX 180539
TAFALO
TAF
KALO 180539Z 1806/1906 VRB04KT P6SM SKC
     FM181500 12011KT P6SM SCT150=



000
FTUS43 KDMX 180539
TAFDSM
TAF
KDSM 180539Z 1806/1906 VRB05KT P6SM FEW250
     FM181500 14011KT P6SM FEW150=



000
FTUS43 KDMX 180539
TAFFOD
TAF
KFOD 180539Z 1806/1906 VRB05KT P6SM SCT100
     FM181500 16010G16KT P6SM BKN100
     FM190000 16012KT P6SM SKC=



000
FTUS43 KDMX 180539
TAFOTM
TAF
KOTM 180539Z 1806/1906 VRB05KT P6SM SKC
     FM181500 14009KT P6SM SKC=



000
FTUS43 KDMX 180539
TAFMCW
TAF
KMCW 180539Z 1806/1906 VRB04KT P6SM FEW150
     FM181500 13012G17KT P6SM BKN150
     FM190000 14014KT P6SM SKC=



000
FTUS43 KDMX 172320
TAFDSM
TAF
KDSM 172320Z 1800/1824 VRB05KT P6SM SKC
     FM181500 15011KT P6SM FEW150=



000
FTUS43 KDMX 172320
TAFFOD
TAF
KFOD 172320Z 1800/1824 VRB05KT P6SM SCT150
     FM181500 16010G16KT P6SM BKN150=



000
FTUS43 KDMX 172320
TAFMCW
TAF
KMCW 172320Z 1800/1824 VRB06KT P6SM FEW150
     FM181500 13012KT P6SM BKN150=



000
FTUS43 KDMX 172320
TAFALO
TAF
KALO 172320Z 1800/1824 36007KT P6SM SKC
     FM180600 VRB04KT P6SM FEW150
     FM181500 12010KT P6SM SCT150=



000
FTUS43 KDMX 172320
TAFOTM
TAF
KOTM 172320Z 1800/1824 VRB05KT P6SM SKC
     FM181500 14008KT P6SM SKC=



000
FTUS43 KDMX 172032 AAA
TAFOTM
TAF AMD
KOTM 172032Z 1721/1818 33014KT P6SM SCT025
     FM180000 VRB05KT P6SM FEW200
     FM181600 14008KT P6SM FEW150=



000
FTUS43 KDMX 172031 AAB
TAFALO
TAF AMD
KALO 172031Z 1721/1818 34007KT P6SM FEW025 FEW200
     FM180000 VRB04KT P6SM FEW200
     FM181500 13009KT P6SM SCT150=



000
FTUS43 KDMX 171853 AAA
TAFALO
TAF AMD
KALO 171853Z 1719/1818 30010KT P6SM BKN025
     FM172000 31012KT P6SM SCT025 BKN200
     FM180000 VRB04KT P6SM FEW200
     FM181500 13009KT P6SM SCT150=



000
FTUS43 KDMX 171852 AAA
TAFMCW
TAF AMD
KMCW 171852Z 1719/1818 33011KT P6SM BKN015
     FM172000 33011KT P6SM SCT025
     FM180000 VRB05KT P6SM BKN200
     FM181500 13010KT P6SM SCT150=



000
FTUS43 KDMX 171726
TAFDSM
TAF
KDSM 171726Z 1718/1818 33009KT P6SM FEW020 SCT200
     FM180000 VRB05KT P6SM FEW200
     FM181500 14011KT P6SM FEW150=



000
FTUS43 KDMX 171726
TAFOTM
TAF
KOTM 171726Z 1718/1818 30014KT P6SM SCT025
     FM180000 VRB05KT P6SM FEW200
     FM181600 14008KT P6SM FEW150=



000
FTUS43 KDMX 171726
TAFMCW
TAF
KMCW 171726Z 1718/1818 33014KT P6SM BKN015
     FM171900 33011KT P6SM SCT025
     FM180000 VRB05KT P6SM BKN200
     FM181500 13010KT P6SM SCT150=



000
FTUS43 KDMX 171726
TAFFOD
TAF
KFOD 171726Z 1718/1818 33006KT P6SM SCT025 SCT250
     FM180000 VRB05KT P6SM SCT150
     FM181500 17011G18KT P6SM SCT100=



000
FTUS43 KDMX 171726
TAFALO
TAF
KALO 171726Z 1718/1818 31014KT P6SM BKN025
     FM171900 31012KT P6SM SCT025 BKN200
     FM180000 VRB04KT P6SM FEW200
     FM181500 13009KT P6SM SCT150=



000
FTUS43 KDMX 171523 AAB
TAFDSM
TAF AMD
KDSM 171523Z 1715/1812 33013KT P6SM OVC015
     FM171700 33009KT P6SM FEW020 SCT200
     FM180100 VRB05KT P6SM FEW200=



000
FTUS43 KDMX 171423 AAA
TAFFOD
TAF AMD
KFOD 171423Z 1714/1812 32009G15KT P6SM OVC012
     FM171600 33008KT P6SM SCT025 SCT250
     FM180000 VRB05KT P6SM SCT150=



000
FTUS43 KDMX 171422 AAA
TAFMCW
TAF AMD
KMCW 171422Z 1714/1812 31012KT P6SM OVC015
     FM171800 33012KT P6SM SCT020 BKN200
     FM180100 VRB05KT P6SM BKN200=



000
FTUS43 KDMX 171419 AAA
TAFDSM
TAF AMD
KDSM 171419Z 1714/1812 33013KT P6SM OVC015
     FM171800 33009KT P6SM FEW020 SCT200
     FM180100 VRB05KT P6SM FEW200=



000
FTUS43 KDMX 171128
TAFFOD
TAF
KFOD 171128Z 1712/1812 34009G15KT P6SM OVC012
     FM171600 33008KT P6SM SCT025 SCT250
     FM180000 VRB05KT P6SM SCT150=



000
FTUS43 KDMX 171128
TAFDSM
TAF
KDSM 171128Z 1712/1812 31013KT P6SM OVC015
     FM171800 33009KT P6SM FEW020 SCT200
     FM180100 VRB05KT P6SM FEW200=



000
FTUS43 KDMX 171128
TAFOTM
TAF
KOTM 171128Z 1712/1812 30012G18KT P6SM OVC016
     FM172000 32009KT P6SM FEW025 SCT250
     FM180200 VRB05KT P6SM FEW200=



000
FTUS43 KDMX 171128
TAFMCW
TAF
KMCW 171128Z 1712/1812 31018KT P6SM OVC008
     FM171400 33013G21KT P6SM BKN014
     FM171800 33012KT P6SM SCT020 BKN200
     FM180100 VRB05KT P6SM BKN200=



000
FTUS43 KDMX 171128
TAFALO
TAF
KALO 171128Z 1712/1812 28013KT P6SM OVC010
     FM171500 31014KT P6SM BKN025
     FM171900 31010KT P6SM SCT025 BKN200
     FM180100 VRB04KT P6SM FEW200=



000
FTUS43 KDMX 170539
TAFFOD
TAF
KFOD 170539Z 1706/1806 33014G18KT P6SM OVC012
      TEMPO 1706/1708 BKN010
     FM171400 33011KT P6SM FEW030 SCT250
     FM180000 07005KT P6SM SCT150=



000
FTUS43 KDMX 170539
TAFALO
TAF
KALO 170539Z 1706/1806 31015G21KT P6SM SCT008 BKN015
     FM171500 31014KT P6SM FEW025 FEW250
     FM180000 VRB05KT P6SM FEW150=



000
FTUS43 KDMX 170539
TAFDSM
TAF
KDSM 170539Z 1706/1806 30016G22KT P6SM BKN015
     FM171400 32012G17KT P6SM FEW030 SCT250
     FM180000 VRB05KT P6SM FEW150=



000
FTUS43 KDMX 170539
TAFOTM
TAF
KOTM 170539Z 1706/1806 27014KT P6SM BKN070
     FM170700 31015G21KT P6SM SCT010 BKN015
     FM171500 32011G17KT P6SM FEW030 SCT250
     FM180000 VRB05KT P6SM FEW150=



000
FTUS43 KDMX 170539
TAFMCW
TAF
KMCW 170539Z 1706/1806 31016G22KT P6SM BKN008
     FM170800 31015G21KT P6SM SCT008 BKN012
     FM171500 33016G24KT P6SM FEW021 SCT250
     FM180000 VRB05KT P6SM FEW150=



000
FTUS43 KDMX 170437 AAC
TAFMCW
TAF AMD
KMCW 170437Z 1705/1724 32016G22KT P6SM BKN005
     FM170700 32015G21KT P6SM SCT010 BKN019
     FM171500 32016G24KT P6SM FEW021 SCT250=



000
FTUS43 KDMX 170424 AAB
TAFOTM
TAF AMD
KOTM 170424Z 1704/1724 17017KT P6SM BKN100
     FM170500 27014KT P6SM BKN070
     FM170700 31015G21KT P6SM SCT010 BKN015
     FM171500 32013G19KT P6SM FEW021 SCT250=



000
FTUS43 KDMX 170423 AAA
TAFALO
TAF AMD
KALO 170423Z 1704/1724 16017G24KT P6SM OVC070
     FM170500 27014KT P6SM SCT040 BKN050
     FM170600 31015G21KT P6SM SCT009 BKN015
     FM171500 31014G20KT P6SM FEW025 SCT250=



000
FTUS43 KDMX 170422 AAB
TAFDSM
TAF AMD
KDSM 170422Z 1704/1724 30015G21KT P6SM BKN015
     FM171400 31013G19KT P6SM FEW021 SCT250=



000
FTUS43 KDMX 170216 AAB
TAFMCW
TAF AMD
KMCW 170216Z 1702/1724 22011KT P6SM SCT025 OVC060
      TEMPO 1702/1704 36011KT -RA BKN025
     FM170400 34016G22KT P6SM SCT006 BKN008
      TEMPO 1704/1705 -RASN
     FM170700 32015G21KT P6SM SCT010 BKN019
     FM171500 32016G24KT P6SM FEW021 SCT250=



000
FTUS43 KDMX 170213 AAB
TAFFOD
TAF AMD
KFOD 170213Z 1702/1724 34014KT P6SM BKN040 OVC080
     FM170300 33014KT P6SM SCT007 BKN012
      TEMPO 1703/1705 BKN008
     FM170600 32010KT P6SM SCT012 BKN022
     FM171400 33011KT P6SM FEW020 SCT250=



000
FTUS43 KDMX 170207 AAA
TAFOTM
TAF AMD
KOTM 170207Z 1702/1724 17017KT P6SM BKN080
     FM170400 29014KT P6SM BKN070
     FM170600 33015KT P6SM SCT012 BKN022
     FM171500 32013G19KT P6SM FEW021 SCT250=



000
FTUS43 KDMX 170205 AAA
TAFDSM
TAF AMD
KDSM 170205Z 1702/1724 31015KT P6SM -SHRA SCT030 BKN060
     FM170400 34015G21KT P6SM SCT008 BKN015
     FM171400 31013G19KT P6SM FEW021 SCT250=



000
FTUS43 KDMX 170051 AAA
TAFFOD
TAF AMD
KFOD 170051Z 1701/1724 34014G20KT P6SM BKN040 OVC080
      TEMPO 1701/1703 -DZ
     FM170300 31012KT P6SM SCT009 BKN015
     FM170600 32010KT P6SM SCT012 BKN022
     FM171400 33011KT P6SM FEW020 SCT250=



000
FTUS43 KDMX 162357 AAA
TAFMCW
TAF AMD
KMCW 162357Z 1700/1724 17013KT P6SM VCSH SCT040 OVC080
     FM170300 34017KT P6SM VCSH SCT009 BKN015
     FM170800 32015G21KT P6SM SCT012 BKN021
     FM171500 32016G24KT P6SM FEW021 SCT250=



000
FTUS43 KDMX 162336
TAFDSM
TAF
KDSM 162336Z 1700/1724 23017G26KT P6SM BKN090
     FM170200 31015G23KT P6SM SCT030 BKN060
     FM170500 34015G21KT P6SM SCT011 BKN022
     FM171400 31013G19KT P6SM FEW021 SCT250=



000
FTUS43 KDMX 162336
TAFOTM
TAF
KOTM 162336Z 1700/1724 17017G25KT P6SM BKN080
     FM170400 29014KT P6SM SCT040 BKN070
     FM170700 33015KT P6SM SCT012 BKN022
     FM171500 32013G19KT P6SM FEW021 SCT250=



000
FTUS43 KDMX 162336
TAFALO
TAF
KALO 162336Z 1700/1724 16017G24KT P6SM OVC070
     FM170400 27014KT P6SM SCT040 BKN060
     FM170600 31015G21KT P6SM SCT010 BKN020
     FM171500 31014G20KT P6SM FEW025 SCT250=



000
FTUS43 KDMX 162336
TAFMCW
TAF
KMCW 162336Z 1700/1724 17015G22KT P6SM SCT040 OVC080
     FM170300 34017KT P6SM VCSH SCT009 BKN015
     FM170800 32015G21KT P6SM SCT012 BKN021
     FM171500 32016G24KT P6SM FEW021 SCT250=



000
FTUS43 KDMX 162336
TAFFOD
TAF
KFOD 162336Z 1700/1724 29015G22KT P6SM BKN040 OVC080
      TEMPO 1701/1703 -DZ
     FM170300 31012KT P6SM SCT009 BKN015
     FM170600 32010KT P6SM SCT012 BKN022
     FM171400 33011KT P6SM FEW020 SCT250=



000
FTUS43 KDMX 162310 AAA
TAFFOD
TAF AMD
KFOD 162310Z 1623/1718 19014G26KT P6SM OVC120
     FM170000 29015G22KT P6SM BKN050 OVC090
     FM170200 30011KT P6SM VCSH SCT020 BKN030
     FM170600 32010KT P6SM SCT012 BKN022
     FM171300 33011KT P6SM FEW020 SCT100=



000
FTUS43 KDMX 161730
TAFOTM
TAF
KOTM 161730Z 1618/1718 18024G33KT P6SM SCT120
     FM170000 20017G24KT P6SM FEW060 BKN100
     FM170500 25014KT P6SM SCT025 BKN035
     FM171000 30012KT P6SM SCT012 BKN022
     FM171500 31013G19KT P6SM FEW020 SCT100=



000
FTUS43 KDMX 161730
TAFALO
TAF
KALO 161730Z 1618/1718 16020G28KT P6SM BKN120
     FM162300 16017G24KT P6SM SCT050 OVC100
     FM170500 22014KT P6SM VCSH SCT020 BKN035
     FM171000 30012KT P6SM SCT015 BKN025
     FM171500 31014G20KT P6SM FEW025 SCT100=



000
FTUS43 KDMX 161730
TAFMCW
TAF
KMCW 161730Z 1618/1718 16020G28KT P6SM OVC120
     FM162300 17015G22KT P6SM VCSH BKN040 OVC070
     FM170400 24013KT P6SM VCSH SCT016 BKN025
     FM170800 31015G21KT P6SM SCT012 BKN020
     FM171400 32016G24KT P6SM FEW020 SCT090=



000
FTUS43 KDMX 161730
TAFFOD
TAF
KFOD 161730Z 1618/1718 20018G27KT P6SM OVC120
     FM162300 23012G18KT P6SM BKN050 OVC090
     FM170200 30011KT P6SM VCSH SCT020 BKN030
     FM170600 32010KT P6SM SCT012 BKN022
     FM171300 33011KT P6SM FEW020 SCT100=



000
FTUS43 KDMX 161730
TAFDSM
TAF
KDSM 161730Z 1618/1718 18025G34KT P6SM SCT120
     FM170000 20017G24KT P6SM SCT050 BKN100
     FM170400 25014KT P6SM SCT020 BKN035
     FM170700 31012KT P6SM SCT012 BKN022
     FM171300 31013G19KT P6SM FEW020 SCT100=



000
FTUS43 KDMX 161129
TAFFOD
TAF
KFOD 161129Z 1612/1712 15015G25KT P6SM OVC120
     FM161600 19024G32KT P6SM VCSH SCT050 OVC100
     FM162100 23015G28KT 6SM -SHRA BKN050
     FM170000 30014KT 4SM -SHRA OVC025
     FM170300 31010KT P6SM OVC015=



000
FTUS43 KDMX 161129
TAFMCW
TAF
KMCW 161129Z 1612/1712 14020G28KT P6SM OVC090
     FM161700 17022G30KT P6SM VCSH SCT040 OVC080
     FM162200 16015G25KT 4SM -SHRA OVC040
     FM170100 29015G22KT 3SM -SHRA OVC025
     FM170400 30014KT P6SM OVC012=



000
FTUS43 KDMX 161129
TAFDSM
TAF
KDSM 161129Z 1612/1712 17016KT P6SM OVC120
     FM161500 16023G30KT P6SM OVC150
     FM161800 18026G35KT P6SM OVC120
     FM162300 23018G24KT P6SM VCSH BKN080
     FM170400 29015G22KT P6SM OVC040
     FM170800 32010KT P6SM OVC012=



000
FTUS43 KDMX 161129
TAFOTM
TAF
KOTM 161129Z 1612/1712 16018KT P6SM OVC120
     FM161500 16023G30KT P6SM BKN150
     FM161800 18025G36KT P6SM BKN120
     FM170000 21015G24KT P6SM OVC080
     FM170500 26016KT P6SM OVC040
     FM170800 30011KT P6SM OVC025=



000
FTUS43 KDMX 161129
TAFALO
TAF
KALO 161129Z 1612/1712 14015G25KT P6SM OVC090
     FM161800 17025G33KT P6SM VCSH SCT050 OVC100
     FM162100 16015G28KT 5SM -SHRA BKN050
     FM170300 20014KT 4SM -SHRA OVC025
     FM170700 27010KT P6SM OVC015=



000
FTUS43 KDMX 160530
TAFMCW
TAF
KMCW 160530Z 1606/1706 12016KT P6SM SCT040 BKN100
     FM161500 17020G27KT P6SM SCT040 BKN090
     FM170100 29015G22KT P6SM SCT030 BKN040=



000
FTUS43 KDMX 160530
TAFALO
TAF
KALO 160530Z 1606/1706 11010KT P6SM SCT150
     FM160800 11014KT P6SM FEW040 BKN150
     FM161500 16019G25KT P6SM SCT050 BKN100
     FM170100 22014KT P6SM SCT035 BKN050=



000
FTUS43 KDMX 160530
TAFOTM
TAF
KOTM 160530Z 1606/1706 12010KT P6SM FEW250
     FM160800 12012KT P6SM BKN150
     FM161500 16015G23KT P6SM BKN150
     FM161800 18025G31KT P6SM SCT050 BKN100
     FM170200 23015G22KT P6SM BKN080=



000
FTUS43 KDMX 160530
TAFDSM
TAF
KDSM 160530Z 1606/1706 14013KT P6SM FEW040 FEW250
     FM161500 16019G25KT P6SM BKN150
     FM161800 18025G31KT P6SM SCT050 BKN100
     FM170000 23015G22KT P6SM BKN080
     FM170300 29015G22KT P6SM BKN040=



000
FTUS43 KDMX 160530
TAFFOD
TAF
KFOD 160530Z 1606/1706 13012G16KT P6SM SCT040 BKN150
     FM161500 19017G24KT P6SM SCT050 BKN100
     FM162200 25014G18KT P6SM BKN050
     FM170100 30014KT P6SM SCT020 BKN035=



000
FTUS43 KDMX 160411 AAA
TAFOTM
TAF AMD
KOTM 160411Z 1604/1624 12008KT P6SM FEW250
     FM160700 12012KT P6SM BKN150
     FM161500 19017G26KT P6SM BKN100=



000
FTUS43 KDMX 160410 AAA
TAFALO
TAF AMD
KALO 160410Z 1604/1624 11008KT P6SM SCT150
     FM160600 11014KT P6SM BKN150
     FM161500 18019G25KT P6SM SCT050 BKN100=



000
FTUS43 KDMX 160409 AAA
TAFMCW
TAF AMD
KMCW 160409Z 1604/1624 12011KT P6SM BKN110
     FM160600 12016KT P6SM BKN100
     FM161500 18019G26KT P6SM SCT040 BKN080=



000
FTUS43 KDMX 160409 AAB
TAFFOD
TAF AMD
KFOD 160409Z 1604/1624 13012G16KT P6SM BKN150
     FM161500 19017G24KT P6SM SCT050 BKN080=



000
FTUS43 KDMX 160138 AAA
TAFFOD
TAF AMD
KFOD 160138Z 1602/1624 13008KT P6SM BKN100
     FM161500 19017G24KT P6SM SCT050 BKN080=



000
FTUS43 KDMX 152327
TAFDSM
TAF
KDSM 152327Z 1600/1624 18011KT P6SM SCT250
     FM160300 14013KT P6SM BKN150
     FM161500 19018G25KT P6SM SCT060 BKN100=



000
FTUS43 KDMX 152327
TAFALO
TAF
KALO 152327Z 1600/1624 16008KT P6SM SCT100
     FM160300 13012KT P6SM BKN100
     FM161500 18019G25KT P6SM SCT050 BKN100=



000
FTUS43 KDMX 152327
TAFFOD
TAF
KFOD 152327Z 1600/1624 16014KT P6SM BKN100
     FM161500 19017G24KT P6SM SCT050 BKN080=



000
FTUS43 KDMX 152327
TAFMCW
TAF
KMCW 152327Z 1600/1624 17012KT P6SM SCT100
     FM160200 14016KT P6SM BKN100
     FM161500 18019G26KT P6SM SCT040 BKN080=



000
FTUS43 KDMX 152327
TAFOTM
TAF
KOTM 152327Z 1600/1624 19008KT P6SM FEW250
     FM160400 14012KT P6SM BKN150
     FM161500 19017G26KT P6SM BKN100=



000
FTUS43 KDMX 151737
TAFALO
TAF
KALO 151737Z 1518/1618 30008KT P6SM SKC
     FM152200 22008KT P6SM SCT150
     FM160100 14009KT P6SM BKN100
     FM161500 18016G24KT P6SM SCT050 BKN100=



000
FTUS43 KDMX 151737
TAFFOD
TAF
KFOD 151737Z 1518/1618 30008KT P6SM SKC
     FM152000 VRB05KT P6SM FEW250
     FM152200 16011KT P6SM BKN150
     FM161500 18015G24KT P6SM SCT050 BKN120=



000
FTUS43 KDMX 151737
TAFMCW
TAF
KMCW 151737Z 1518/1618 28010KT P6SM SKC
     FM152100 22011KT P6SM SCT200
     FM160100 14012KT P6SM BKN090
     FM161500 18015G25KT P6SM SCT035 BKN080=



000
FTUS43 KDMX 151737
TAFOTM
TAF
KOTM 151737Z 1518/1618 27012KT P6SM SCT040
     FM152100 22010KT P6SM SCT150
     FM160100 15012KT P6SM BKN120
     FM161500 19015G24KT P6SM BKN100=



000
FTUS43 KDMX 151737
TAFDSM
TAF
KDSM 151737Z 1518/1618 30010KT P6SM FEW040
     FM152100 20007KT P6SM SCT200
     FM160100 15011KT P6SM BKN100
     FM161500 19016G25KT P6SM SCT050 BKN100=



000
FTUS43 KDMX 151120
TAFDSM
TAF
KDSM 151120Z 1512/1612 34005KT P6SM SKC
     FM152100 23009KT P6SM BKN120
     FM160300 15015KT P6SM BKN100=



000
FTUS43 KDMX 151120
TAFOTM
TAF
KOTM 151120Z 1512/1612 29007KT P6SM SKC
     FM152100 24010KT P6SM SCT150
     FM160200 15014KT P6SM BKN120=



000
FTUS43 KDMX 151120
TAFALO
TAF
KALO 151120Z 1512/1612 31006KT P6SM SKC
     FM152100 26008KT P6SM BKN120
     FM160400 14014KT P6SM BKN100=



000
FTUS43 KDMX 151120
TAFMCW
TAF
KMCW 151120Z 1512/1612 32013KT P6SM SKC
     FM152100 22011KT P6SM BKN150
     FM160300 14015KT P6SM BKN100=



000
FTUS43 KDMX 151120
TAFFOD
TAF
KFOD 151120Z 1512/1612 35005KT P6SM SKC
     FM151900 26008KT P6SM SCT080
     FM152100 19014KT P6SM BKN100
     FM160200 16015KT P6SM OVC120=



    US Dept of Commerce
    National Oceanic and Atmospheric Administration
    National Weather Service
    1325 East West Highway
    Silver Spring, MD 20910
    Page Author: NWS Internet Services Team
Disclaimer
Information Quality
Credits
Glossary
Privacy Policy
Freedom of Information Act (FOIA)
About Us
Career Opportunities